Time;durP1;ratioP1;P1;durP2;ratioP2;P2;SDS_P1;SDS_P2;PMS_P1;PMS_P2;Temp;Humidity;BMP_temperature;BMP_pressure;BME280_temperature;BME280_humidity;BME280_pressure;Samples;Min_cycle;Max_cycle;Signal;HPM_P1;HPM_P2
2022/03/08 00:01:33;;;;;;;25.95;23.58;;;0.80;99.90;;;;;;5039491;28;20125;-75
2022/03/08 00:04:00;;;;;;;26.45;24.02;;;0.60;99.90;;;;;;5041511;28;20135;-75
2022/03/08 00:06:27;;;;;;;25.45;23.25;;;0.60;99.90;;;;;;5043406;28;20110;-75
2022/03/08 00:08:54;;;;;;;24.92;22.60;;;0.60;99.90;;;;;;5042780;28;20098;-75
2022/03/08 00:11:20;;;;;;;25.38;22.90;;;0.70;99.90;;;;;;5041561;28;20353;-75
2022/03/08 00:13:50;;;;;;;25.83;23.48;;;0.70;99.90;;;;;;5044162;28;20044;-74
2022/03/08 00:16:18;;;;;;;25.13;22.67;;;0.70;99.90;;;;;;5043069;28;20105;-75
2022/03/08 00:18:45;;;;;;;24.52;22.17;;;0.70;99.90;;;;;;5042988;28;20133;-75
2022/03/08 00:21:12;;;;;;;25.27;23.13;;;0.70;99.90;;;;;;5041910;28;20053;-75
2022/03/08 00:23:41;;;;;;;24.70;22.38;;;0.80;99.90;;;;;;5061385;28;20052;-75
2022/03/08 00:26:07;;;;;;;25.38;23.10;;;0.70;99.90;;;;;;5043306;28;20565;-75
2022/03/08 00:28:34;;;;;;;25.02;22.60;;;0.70;99.90;;;;;;5042306;28;20067;-75
2022/03/08 00:31:05;;;;;;;26.02;23.83;;;0.70;99.90;;;;;;5037705;28;20041;-75
2022/03/08 00:33:33;;;;;;;26.40;23.77;;;0.70;99.90;;;;;;5036898;28;20052;-75
2022/03/08 00:36:00;;;;;;;25.70;23.60;;;0.60;99.90;;;;;;5057460;28;20235;-75
2022/03/08 00:38:28;;;;;;;25.88;23.63;;;0.60;99.90;;;;;;5060573;28;20048;-76
2022/03/08 00:40:55;;;;;;;26.48;24.08;;;0.50;99.90;;;;;;5041089;28;20500;-75
2022/03/08 00:43:21;;;;;;;29.70;25.98;;;0.30;99.90;;;;;;5042965;28;20079;-75
2022/03/08 00:45:48;;;;;;;29.10;26.42;;;0.00;99.90;;;;;;5024901;28;20512;-75
2022/03/08 00:48:15;;;;;;;28.50;25.55;;;-0.20;99.90;;;;;;5025692;28;20055;-76
2022/03/08 00:50:42;;;;;;;27.30;24.75;;;-0.50;99.90;;;;;;5060075;28;20722;-76
2022/03/08 00:53:12;;;;;;;27.52;24.63;;;-0.60;99.90;;;;;;5043097;28;20052;-76
2022/03/08 00:55:39;;;;;;;26.52;23.92;;;-0.70;99.90;;;;;;5024777;28;20429;-76
2022/03/08 00:58:07;;;;;;;27.70;24.73;;;-0.80;99.90;;;;;;5042999;28;20052;-76
2022/03/08 01:00:37;;;;;;;26.30;23.63;;;-0.90;99.90;;;;;;5038944;28;20144;-76
2022/03/08 01:03:04;;;;;;;27.05;24.48;;;-1.10;99.90;;;;;;5022361;28;20140;-76
2022/03/08 01:05:32;;;;;;;27.13;24.42;;;-1.20;99.90;;;;;;5005518;28;20504;-75
2022/03/08 01:07:59;;;;;;;26.38;23.52;;;-1.20;99.90;;;;;;5038319;28;20559;-75
2022/03/08 01:10:27;;;;;;;25.70;22.30;;;-1.20;99.90;;;;;;5060053;22;20037;-73
2022/03/08 01:12:55;;;;;;;28.88;23.15;;;-1.00;99.90;;;;;;5007188;28;20413;-73
2022/03/08 01:15:24;;;;;;;24.52;21.95;;;-0.90;99.90;;;;;;5020122;28;20495;-73
2022/03/08 01:17:52;;;;;;;25.23;22.55;;;-0.90;99.90;;;;;;5005655;28;20107;-75
2022/03/08 01:20:19;;;;;;;25.75;23.35;;;-0.80;99.90;;;;;;5028172;28;20124;-75
2022/03/08 01:22:46;;;;;;;26.17;23.67;;;-0.80;99.90;;;;;;5041081;28;20452;-76
2022/03/08 01:25:17;;;;;;;25.45;22.92;;;-0.90;99.90;;;;;;5006772;28;20106;-75
2022/03/08 01:27:44;;;;;;;26.98;24.42;;;-1.00;99.90;;;;;;5023092;28;20049;-76
2022/03/08 01:30:13;;;;;;;27.70;24.85;;;-1.10;99.90;;;;;;5036580;28;20133;-76
2022/03/08 01:32:40;;;;;;;27.33;24.02;;;-1.20;99.90;;;;;;5033841;28;20067;-76
2022/03/08 01:35:09;;;;;;;26.55;23.73;;;-1.40;99.90;;;;;;5024498;28;20512;-75
2022/03/08 01:37:36;;;;;;;25.73;23.27;;;-1.40;99.90;;;;;;5041419;28;20563;-75
2022/03/08 01:40:05;;;;;;;25.30;22.77;;;-1.30;99.90;;;;;;5034676;28;20159;-72
2022/03/08 01:42:33;;;;;;;25.10;22.60;;;-1.20;99.90;;;;;;5039357;28;20048;-76
2022/03/08 01:45:00;;;;;;;24.73;22.17;;;-1.00;99.90;;;;;;5022789;28;20048;-73
2022/03/08 01:47:28;;;;;;;25.70;23.00;;;-0.90;99.90;;;;;;5020457;28;20051;-73
2022/03/08 01:49:54;;;;;;;27.55;22.50;;;-1.10;99.90;;;;;;5002348;28;20060;-74
2022/03/08 01:52:23;;;;;;;26.75;23.95;;;-1.20;99.90;;;;;;5012993;28;20373;-73
2022/03/08 01:54:51;;;;;;;25.42;22.33;;;-1.30;99.90;;;;;;5057212;28;20068;-73
2022/03/08 01:57:19;;;;;;;26.33;23.63;;;-1.40;99.90;;;;;;5060328;28;20139;-73
2022/03/08 01:59:46;;;;;;;26.60;23.83;;;-1.50;99.90;;;;;;5038900;28;20056;-76
2022/03/08 02:02:13;;;;;;;26.77;22.98;;;-1.60;99.90;;;;;;5035668;28;20045;-73
2022/03/08 02:04:40;;;;;;;26.73;23.10;;;-1.70;99.90;;;;;;5023011;28;20041;-72
2022/03/08 02:07:07;;;;;;;29.25;23.58;;;-1.70;99.90;;;;;;5022239;28;20053;-73
2022/03/08 02:09:34;;;;;;;29.30;25.70;;;-1.80;99.90;;;;;;5036383;28;20073;-76
2022/03/08 02:12:01;;;;;;;27.65;24.63;;;-1.70;99.90;;;;;;5030504;28;20124;-75
2022/03/08 02:14:28;;;;;;;32.58;24.02;;;-1.80;99.90;;;;;;5040740;28;20183;-73
2022/03/08 02:16:54;;;;;;;25.90;23.13;;;-1.90;99.90;;;;;;5022206;28;20156;-73
2022/03/08 02:19:21;;;;;;;30.50;23.48;;;-1.90;99.90;;;;;;5040262;28;20049;-73
2022/03/08 02:21:50;;;;;;;29.45;23.10;;;-2.00;99.90;;;;;;5012855;28;20146;-76
2022/03/08 02:24:17;;;;;;;32.05;24.38;;;-2.00;99.90;;;;;;5036390;28;20077;-73
2022/03/08 02:26:45;;;;;;;30.20;22.77;;;-2.00;99.90;;;;;;5040090;28;20076;-76
2022/03/08 02:29:12;;;;;;;30.13;25.77;;;-2.00;99.90;;;;;;5021890;28;20136;-75
2022/03/08 02:31:39;;;;;;;30.15;24.92;;;-1.90;99.90;;;;;;5010604;28;20083;-76
2022/03/08 02:34:06;;;;;;;28.75;22.80;;;-2.00;99.90;;;;;;5024342;28;20049;-73
2022/03/08 02:36:33;;;;;;;27.38;23.45;;;-2.00;99.90;;;;;;5019937;28;20046;-73
2022/03/08 02:39:00;;;;;;;25.58;22.92;;;-2.00;99.90;;;;;;4986570;28;20099;-76
2022/03/08 02:41:27;;;;;;;28.58;23.52;;;-2.00;99.90;;;;;;5033576;28;20044;-75
2022/03/08 02:43:54;;;;;;;29.30;23.45;;;-2.00;99.90;;;;;;5034593;28;20052;-73
2022/03/08 02:46:20;;;;;;;26.52;21.85;;;-2.00;99.90;;;;;;5039737;28;20182;-73
2022/03/08 02:48:47;;;;;;;28.90;23.92;;;-2.00;99.90;;;;;;5020539;28;20288;-73
2022/03/08 02:51:14;;;;;;;30.92;24.15;;;-1.90;99.90;;;;;;5020670;28;20070;-73
2022/03/08 02:53:41;;;;;;;28.55;23.77;;;-2.20;99.90;;;;;;5039476;28;20036;-73
2022/03/08 02:56:08;;;;;;;26.77;22.88;;;-2.10;99.90;;;;;;5039725;28;20103;-73
2022/03/08 02:58:35;;;;;;;26.42;22.98;;;-2.20;99.90;;;;;;5040167;28;20048;-75
2022/03/08 03:01:02;;;;;;;24.67;21.65;;;-2.30;99.90;;;;;;5034512;28;20045;-75
2022/03/08 03:03:28;;;;;;;26.92;23.00;;;-2.30;99.90;;;;;;5027865;28;20045;-75
2022/03/08 03:05:55;;;;;;;27.50;24.30;;;-2.30;99.90;;;;;;5019716;28;20065;-75
2022/03/08 03:08:23;;;;;;;31.10;24.63;;;-2.30;99.90;;;;;;5001991;28;20056;-75
2022/03/08 03:10:50;;;;;;;28.45;24.08;;;-2.30;99.90;;;;;;5027921;28;20132;-75
2022/03/08 03:13:16;;;;;;;27.88;24.02;;;-2.40;99.90;;;;;;5020753;28;20467;-75
2022/03/08 03:15:43;;;;;;;28.10;23.75;;;-2.40;99.90;;;;;;5043095;28;20079;-75
2022/03/08 03:18:10;;;;;;;26.70;22.35;;;-2.30;99.90;;;;;;5025400;28;20115;-75
2022/03/08 03:20:37;;;;;;;33.53;24.08;;;-2.30;99.90;;;;;;5042163;28;20235;-75
2022/03/08 03:23:04;;;;;;;28.55;23.90;;;-2.30;99.90;;;;;;5008779;28;20283;-75
2022/03/08 03:25:31;;;;;;;28.40;23.58;;;-2.30;99.90;;;;;;5042576;28;20187;-75
2022/03/08 03:27:58;;;;;;;29.73;22.42;;;-2.20;99.90;;;;;;5025537;28;20864;-75
2022/03/08 03:30:25;;;;;;;29.27;22.17;;;-2.20;99.90;;;;;;5022966;28;20101;-74
2022/03/08 03:32:52;;;;;;;30.15;23.73;;;-2.20;99.90;;;;;;5037581;28;20496;-74
2022/03/08 03:35:19;;;;;;;29.40;24.17;;;-2.30;99.90;;;;;;5043178;28;20048;-74
2022/03/08 03:37:46;;;;;;;31.55;24.38;;;-2.30;99.90;;;;;;5025127;28;20246;-74
2022/03/08 03:40:14;;;;;;;27.10;24.20;;;-2.40;99.90;;;;;;5018383;28;20130;-74
2022/03/08 03:42:41;;;;;;;29.20;23.02;;;-2.40;99.90;;;;;;5029290;28;20133;-74
2022/03/08 03:45:09;;;;;;;31.90;25.17;;;-2.50;99.90;;;;;;5022102;28;20115;-74
2022/03/08 03:47:35;;;;;;;26.13;22.88;;;-2.40;99.90;;;;;;5008420;28;20068;-74
2022/03/08 03:50:04;;;;;;;27.52;24.25;;;-2.20;99.90;;;;;;5041961;28;20333;-74
2022/03/08 03:52:31;;;;;;;25.13;22.27;;;-2.00;99.90;;;;;;5042843;28;20107;-74
2022/03/08 03:54:58;;;;;;;24.85;22.40;;;-1.70;99.90;;;;;;5025121;28;20049;-74
2022/03/08 03:57:24;;;;;;;24.83;22.33;;;-1.50;99.90;;;;;;5032664;28;20052;-74
2022/03/08 03:59:51;;;;;;;26.75;23.85;;;-1.30;99.90;;;;;;5007598;28;20163;-74
2022/03/08 04:02:18;;;;;;;25.85;23.25;;;-1.30;99.90;;;;;;5030376;28;20045;-74
2022/03/08 04:04:45;;;;;;;26.73;23.67;;;-1.40;99.90;;;;;;5007572;28;20055;-74
2022/03/08 04:07:12;;;;;;;29.42;25.17;;;-1.40;99.90;;;;;;5024705;28;20102;-74
2022/03/08 04:09:38;;;;;;;28.20;24.15;;;-1.60;99.90;;;;;;5036322;28;20045;-74
2022/03/08 04:12:06;;;;;;;26.00;23.30;;;-1.70;99.90;;;;;;5032749;28;20204;-74
2022/03/08 04:14:33;;;;;;;26.20;23.55;;;-1.90;99.90;;;;;;5042285;28;20033;-74
2022/03/08 04:17:02;;;;;;;27.10;24.25;;;-2.10;99.90;;;;;;5023965;28;20065;-74
2022/03/08 04:19:29;;;;;;;25.85;23.30;;;-2.10;99.90;;;;;;5042357;28;20552;-74
2022/03/08 04:21:55;;;;;;;26.58;23.88;;;-2.10;99.90;;;;;;5041204;28;20119;-74
2022/03/08 04:24:22;;;;;;;28.65;24.08;;;-2.10;99.90;;;;;;5041676;28;20139;-74
2022/03/08 04:26:49;;;;;;;25.95;23.35;;;-2.10;99.90;;;;;;5024255;28;20534;-74
2022/03/08 04:29:15;;;;;;;34.00;24.50;;;-2.10;99.90;;;;;;5041796;28;20503;-75
2022/03/08 04:31:42;;;;;;;26.98;23.90;;;-1.90;99.90;;;;;;5026679;28;20095;-74
2022/03/08 04:34:09;;;;;;;29.40;24.15;;;-1.70;99.90;;;;;;5039474;28;20501;-74
2022/03/08 04:36:36;;;;;;;30.05;25.20;;;-1.40;99.90;;;;;;5024153;28;20049;-74
2022/03/08 04:39:03;;;;;;;31.17;25.77;;;-1.10;99.90;;;;;;5021950;28;20497;-74
2022/03/08 04:41:29;;;;;;;27.63;24.77;;;-0.80;99.90;;;;;;5031136;28;20504;-74
2022/03/08 04:43:56;;;;;;;27.33;24.55;;;-0.60;99.90;;;;;;5025157;28;20103;-74
2022/03/08 04:46:23;;;;;;;27.33;24.73;;;-0.40;99.90;;;;;;5041570;28;20075;-74
2022/03/08 04:48:50;;;;;;;28.30;25.40;;;-0.40;99.90;;;;;;5030050;28;20140;-74
2022/03/08 04:51:17;;;;;;;28.83;26.08;;;-0.30;99.90;;;;;;5019334;28;20045;-74
2022/03/08 04:53:43;;;;;;;27.30;24.65;;;-0.30;99.90;;;;;;5034510;28;20064;-74
2022/03/08 04:56:10;;;;;;;28.48;25.67;;;-0.20;99.90;;;;;;5040055;28;20784;-74
2022/03/08 04:58:37;;;;;;;28.02;25.15;;;-0.20;99.90;;;;;;5040652;28;20072;-74
2022/03/08 05:01:04;;;;;;;28.63;25.92;;;-0.10;99.90;;;;;;5038106;28;20072;-74
2022/03/08 05:03:30;;;;;;;30.23;27.30;;;0.00;99.90;;;;;;5024123;28;20743;-74
2022/03/08 05:05:58;;;;;;;29.95;26.90;;;-0.10;99.90;;;;;;5014769;28;20052;-75
2022/03/08 05:08:25;;;;;;;29.73;26.83;;;-0.10;99.90;;;;;;5040654;28;20057;-74
2022/03/08 05:10:52;;;;;;;29.35;26.40;;;-0.10;99.90;;;;;;5020106;28;20042;-74
2022/03/08 05:13:18;;;;;;;30.15;26.92;;;-0.10;99.90;;;;;;5015735;28;20127;-74
2022/03/08 05:15:48;;;;;;;29.40;26.45;;;-0.10;99.90;;;;;;5020408;28;20052;-74
2022/03/08 05:18:16;;;;;;;30.92;26.73;;;-0.20;99.90;;;;;;5039530;28;20084;-74
2022/03/08 05:20:43;;;;;;;32.38;28.98;;;-0.20;99.90;;;;;;5039763;28;20087;-74
2022/03/08 05:23:10;;;;;;;31.45;28.25;;;-0.40;99.90;;;;;;5028382;28;20033;-74
2022/03/08 05:25:37;;;;;;;33.60;30.05;;;-0.60;99.90;;;;;;5044874;28;20577;-75
2022/03/08 05:28:04;;;;;;;32.67;29.45;;;-0.90;99.90;;;;;;5040379;28;20073;-74
2022/03/08 05:30:31;;;;;;;31.88;28.92;;;-1.00;99.90;;;;;;5038043;28;20049;-75
2022/03/08 05:32:57;;;;;;;33.17;28.25;;;-1.10;99.90;;;;;;5030399;28;20043;-74
2022/03/08 05:35:24;;;;;;;32.08;28.83;;;-1.20;99.90;;;;;;5027155;28;20173;-74
2022/03/08 05:37:51;;;;;;;31.17;28.10;;;-1.00;99.90;;;;;;5021248;28;20143;-74
2022/03/08 05:40:17;;;;;;;31.20;28.17;;;-0.90;99.90;;;;;;5025404;28;20408;-74
2022/03/08 05:42:44;;;;;;;50.00;36.72;;;-1.00;99.90;;;;;;5021061;28;20103;-74
2022/03/08 05:45:12;;;;;;;115.57;60.15;;;-1.10;99.90;;;;;;5019657;28;20110;-74
2022/03/08 05:47:40;;;;;;;157.13;79.63;;;-1.30;99.90;;;;;;5039841;28;20060;-74
2022/03/08 05:50:08;;;;;;;83.88;51.75;;;-1.50;99.90;;;;;;5039505;28;20574;-76
2022/03/08 05:52:34;;;;;;;60.15;42.90;;;-1.70;99.90;;;;;;5039555;28;20069;-76
2022/03/08 05:55:02;;;;;;;64.07;42.53;;;-1.80;99.90;;;;;;5029085;28;20128;-76
2022/03/08 05:57:29;;;;;;;53.80;38.28;;;-1.90;99.90;;;;;;5021085;28;20443;-76
2022/03/08 05:59:56;;;;;;;54.67;39.72;;;-2.00;99.90;;;;;;5021070;28;20475;-73
2022/03/08 06:02:22;;;;;;;51.25;37.28;;;-2.10;99.90;;;;;;5028440;28;20041;-73
2022/03/08 06:04:49;;;;;;;47.85;36.35;;;-2.10;99.90;;;;;;5021809;28;20355;-74
2022/03/08 06:07:16;;;;;;;47.42;40.35;;;-2.10;99.90;;;;;;5041949;28;20147;-76
2022/03/08 06:09:43;;;;;;;46.08;37.88;;;-2.10;99.90;;;;;;5038438;28;20225;-76
2022/03/08 06:12:10;;;;;;;47.45;37.42;;;-2.20;99.90;;;;;;5028266;28;20045;-76
2022/03/08 06:14:36;;;;;;;49.45;40.10;;;-2.20;99.90;;;;;;5020532;28;20045;-74
2022/03/08 06:17:05;;;;;;;46.30;38.20;;;-2.30;99.90;;;;;;5021812;28;20049;-76
2022/03/08 06:19:32;;;;;;;41.60;35.28;;;-2.30;99.90;;;;;;5038702;28;20560;-76
2022/03/08 06:21:59;;;;;;;45.22;36.53;;;-2.40;99.90;;;;;;5020407;28;20099;-76
2022/03/08 06:24:25;;;;;;;44.83;37.25;;;-2.30;99.90;;;;;;5046136;28;20410;-76
2022/03/08 06:26:52;;;;;;;49.67;38.40;;;-2.40;99.90;;;;;;5057533;28;20056;-73
2022/03/08 06:29:19;;;;;;;46.97;37.45;;;-2.40;99.90;;;;;;5041030;28;20114;-76
2022/03/08 06:31:46;;;;;;;47.85;37.55;;;-2.40;99.90;;;;;;4997956;28;20045;-76
2022/03/08 06:34:13;;;;;;;47.75;36.38;;;-2.50;99.90;;;;;;5022756;28;20052;-76
2022/03/08 06:36:41;;;;;;;34.95;28.08;;;-2.30;99.90;;;;;;5018421;28;20144;-76
2022/03/08 06:39:08;;;;;;;36.17;30.83;;;-2.00;99.90;;;;;;5014156;28;20114;-73
2022/03/08 06:41:38;;;;;;;33.97;30.08;;;-1.70;99.90;;;;;;5033917;28;20049;-74
2022/03/08 06:44:05;;;;;;;33.45;28.67;;;-1.50;99.90;;;;;;5007109;28;20374;-75
2022/03/08 06:46:32;;;;;;;32.83;28.80;;;-1.10;99.90;;;;;;5040736;28;20076;-74
2022/03/08 06:48:58;;;;;;;33.90;30.30;;;-0.90;99.90;;;;;;5043247;28;20730;-75
2022/03/08 06:51:26;;;;;;;32.33;29.00;;;-0.70;99.90;;;;;;5042235;28;20049;-75
2022/03/08 06:53:52;;;;;;;33.50;30.27;;;-0.60;99.90;;;;;;5030334;28;20095;-74
2022/03/08 06:56:20;;;;;;;33.63;30.27;;;-0.40;99.90;;;;;;5051874;28;20041;-75
2022/03/08 06:58:47;;;;;;;35.13;30.85;;;-0.30;99.90;;;;;;5042868;28;20079;-75
2022/03/08 07:01:14;;;;;;;35.60;32.45;;;-0.10;99.90;;;;;;5020131;28;20098;-74
2022/03/08 07:03:42;;;;;;;36.45;32.90;;;0.10;99.90;;;;;;5024381;28;20128;-75
2022/03/08 07:06:09;;;;;;;36.97;33.33;;;0.20;99.90;;;;;;4989752;28;20103;-74
2022/03/08 07:08:37;;;;;;;36.53;33.22;;;0.30;99.90;;;;;;5031321;28;20459;-75
2022/03/08 07:11:04;;;;;;;38.15;34.90;;;0.40;99.90;;;;;;5041941;23;20112;-77
2022/03/08 07:13:32;;;;;;;36.78;33.67;;;0.40;99.90;;;;;;5009208;28;20121;-78
2022/03/08 07:15:59;;;;;;;38.13;34.45;;;0.60;99.90;;;;;;5022347;28;20478;-77
2022/03/08 07:18:26;;;;;;;38.22;34.85;;;0.70;99.90;;;;;;4990069;28;20042;-77
2022/03/08 07:20:53;;;;;;;36.28;33.10;;;0.80;99.90;;;;;;4981432;28;20038;-77
2022/03/08 07:23:21;;;;;;;39.03;35.63;;;0.90;99.90;;;;;;4984990;28;20382;-77
2022/03/08 07:25:48;;;;;;;35.22;32.22;;;1.00;99.90;;;;;;4982600;28;20042;-77
2022/03/08 07:28:15;;;;;;;35.85;32.83;;;1.00;99.90;;;;;;4988455;28;20141;-77
2022/03/08 07:30:58;;;;;;;36.47;33.28;;;1.10;99.90;;;;;;4969943;28;20043;-76
2022/03/08 07:33:26;;;;;;;38.30;34.83;;;1.20;99.90;;;;;;4971266;28;20046;-77
2022/03/08 07:35:53;;;;;;;36.47;33.03;;;1.30;99.90;;;;;;4965143;28;20047;-76
2022/03/08 07:38:20;;;;;;;38.45;34.95;;;1.40;99.90;;;;;;4949413;28;20055;-76
2022/03/08 07:40:47;;;;;;;36.42;33.42;;;1.40;99.90;;;;;;4986406;28;20046;-76
2022/03/08 07:43:13;;;;;;;35.65;32.65;;;1.50;99.90;;;;;;4984309;28;20120;-77
2022/03/08 07:45:41;;;;;;;37.65;34.60;;;1.50;99.90;;;;;;4984528;28;20537;-76
2022/03/08 07:48:08;;;;;;;37.25;34.03;;;1.60;99.90;;;;;;4978174;28;20049;-75
2022/03/08 07:50:36;;;;;;;39.40;36.10;;;1.70;99.90;;;;;;4998502;28;20080;-77
2022/03/08 07:53:04;;;;;;;37.63;34.50;;;1.80;99.90;;;;;;4990377;28;20917;-78
2022/03/08 07:55:31;;;;;;;37.80;34.67;;;1.90;99.90;;;;;;4989147;28;20054;-78
2022/03/08 07:58:00;;;;;;;36.92;33.92;;;1.90;99.90;;;;;;5006475;28;20058;-78
2022/03/08 08:00:30;;;;;;;37.78;34.20;;;2.00;99.90;;;;;;4990937;28;20117;-78
2022/03/08 08:02:57;;;;;;;39.17;36.03;;;2.10;99.90;;;;;;4957922;28;20047;-78
2022/03/08 08:05:24;;;;;;;36.47;33.55;;;2.20;99.90;;;;;;4967691;28;20062;-78
2022/03/08 08:07:51;;;;;;;37.00;34.15;;;2.20;99.90;;;;;;4980776;28;20046;-77
2022/03/08 08:10:18;;;;;;;37.30;34.50;;;2.30;99.90;;;;;;4969215;28;20190;-78
2022/03/08 08:12:45;;;;;;;36.08;33.28;;;2.40;99.90;;;;;;4986593;28;20040;-78
2022/03/08 08:15:12;;;;;;;38.55;35.72;;;2.50;99.90;;;;;;4973399;28;20522;-78
2022/03/08 08:17:39;;;;;;;35.75;33.13;;;2.80;99.90;;;;;;4971261;28;20057;-78
2022/03/08 08:20:06;;;;;;;38.40;35.55;;;3.00;99.90;;;;;;4957099;28;20058;-78
2022/03/08 08:22:33;;;;;;;36.90;34.42;;;3.30;99.90;;;;;;4990474;28;20082;-78
2022/03/08 08:25:00;;;;;;;36.47;34.08;;;3.40;99.90;;;;;;4990099;28;20076;-78
2022/03/08 08:27:28;;;;;;;36.88;34.08;;;3.60;99.90;;;;;;5008536;28;20319;-78
2022/03/08 08:29:55;;;;;;;36.65;34.15;;;3.50;99.90;;;;;;4985434;28;20123;-78
2022/03/08 08:32:22;;;;;;;34.50;32.00;;;3.60;99.90;;;;;;4977311;28;20090;-78
2022/03/08 08:34:48;;;;;;;38.08;35.30;;;3.80;99.90;;;;;;5003309;28;20046;-78
2022/03/08 08:37:15;;;;;;;34.72;32.25;;;4.00;99.90;;;;;;4970539;28;20054;-78
2022/03/08 08:39:42;;;;;;;36.38;33.67;;;4.10;99.90;;;;;;4987753;28;20061;-78
2022/03/08 08:42:09;;;;;;;35.15;32.67;;;4.20;99.90;;;;;;4993252;28;20505;-78
2022/03/08 08:44:41;;;;;;;34.03;31.83;;;4.20;99.90;;;;;;4975314;28;20088;-78
2022/03/08 08:47:08;;;;;;;36.40;33.92;;;4.30;99.90;;;;;;4985865;28;20050;-78
2022/03/08 08:49:35;;;;;;;34.95;32.55;;;4.50;99.90;;;;;;4968389;28;20057;-79
2022/03/08 08:52:03;;;;;;;33.58;31.45;;;5.00;99.90;;;;;;4984292;28;20046;-79
2022/03/08 08:54:30;;;;;;;34.15;31.73;;;4.90;99.90;;;;;;4978261;28;20121;-78
2022/03/08 08:56:57;;;;;;;35.15;32.45;;;4.70;99.90;;;;;;5000961;28;20051;-78
2022/03/08 08:59:24;;;;;;;34.92;32.60;;;5.00;99.90;;;;;;4985739;28;20140;-78
2022/03/08 09:01:51;;;;;;;34.25;31.88;;;5.20;99.90;;;;;;4983274;28;20053;-79
2022/03/08 09:04:18;;;;;;;35.40;32.60;;;5.40;99.90;;;;;;4986781;28;20046;-78
2022/03/08 09:06:45;;;;;;;35.15;32.65;;;5.60;99.90;;;;;;5000662;28;20105;-78
2022/03/08 09:09:12;;;;;;;34.75;32.42;;;6.10;99.90;;;;;;4987685;28;20081;-78
2022/03/08 09:11:39;;;;;;;34.33;32.03;;;6.00;99.90;;;;;;4970586;28;20274;-78
2022/03/08 09:14:05;;;;;;;34.28;32.00;;;6.00;99.90;;;;;;4988052;28;20144;-78
2022/03/08 09:16:32;;;;;;;34.67;32.15;;;5.90;99.90;;;;;;4986157;28;20100;-78
2022/03/08 09:18:59;;;;;;;35.88;33.42;;;6.10;99.90;;;;;;4986032;28;20286;-78
2022/03/08 09:21:26;;;;;;;37.47;34.83;;;6.20;99.90;;;;;;4970457;28;20069;-78
2022/03/08 09:23:53;;;;;;;37.10;34.33;;;6.40;99.90;;;;;;4971893;28;20057;-78
2022/03/08 09:26:19;;;;;;;36.90;34.35;;;6.70;99.90;;;;;;4988212;28;20629;-78
2022/03/08 09:28:46;;;;;;;37.70;35.10;;;6.90;99.90;;;;;;4989262;28;20100;-78
2022/03/08 09:31:13;;;;;;;37.45;34.88;;;7.00;99.90;;;;;;4965673;28;20141;-78
2022/03/08 09:33:41;;;;;;;38.13;35.72;;;7.30;99.90;;;;;;4965575;28;20053;-78
2022/03/08 09:36:08;;;;;;;38.25;35.75;;;7.80;99.90;;;;;;4990267;28;20169;-78
2022/03/08 09:38:37;;;;;;;37.45;34.85;;;7.90;99.90;;;;;;4984446;28;20058;-78
2022/03/08 09:41:04;;;;;;;38.17;35.45;;;7.10;99.90;;;;;;4951517;28;20117;-78
2022/03/08 09:43:36;;;;;;;39.13;36.70;;;7.40;99.90;;;;;;5001092;28;20132;-78
2022/03/08 09:46:03;;;;;;;38.25;35.85;;;7.60;99.90;;;;;;4966488;28;20229;-78
2022/03/08 09:48:31;;;;;;;38.70;36.42;;;7.70;99.90;;;;;;4983746;28;20299;-78
2022/03/08 09:51:00;;;;;;;36.17;33.78;;;7.70;99.90;;;;;;4982523;28;20076;-78
2022/03/08 09:53:29;;;;;;;36.67;34.28;;;7.50;99.90;;;;;;4945961;28;20061;-78
2022/03/08 09:55:58;;;;;;;36.25;33.85;;;7.50;99.90;;;;;;4981214;28;20471;-77
2022/03/08 09:58:31;;;;;;;36.25;33.95;;;7.60;99.90;;;;;;4968715;28;20342;-77
2022/03/08 10:01:00;;;;;;;34.10;31.95;;;7.40;99.90;;;;;;4979424;28;20073;-77
2022/03/08 10:03:36;;;;;;;34.95;32.38;;;6.80;99.90;;;;;;4972307;28;20112;-77
2022/03/08 10:06:04;;;;;;;33.65;31.00;;;6.80;99.90;;;;;;5001178;28;20045;-77
2022/03/08 10:08:31;;;;;;;32.13;29.95;;;6.90;99.90;;;;;;4999826;28;20719;-77
2022/03/08 10:11:01;;;;;;;33.28;30.98;;;7.20;99.90;;;;;;4981568;28;20120;-77
2022/03/08 10:13:50;;;;;;;31.40;29.27;;;7.30;99.90;;;;;;4977539;28;20128;-76
2022/03/08 10:16:28;;;;;;;32.42;30.13;;;7.20;99.90;;;;;;4981700;28;20062;-77
2022/03/08 10:19:03;;;;;;;32.67;30.13;;;7.10;99.90;;;;;;4981856;28;20081;-76
2022/03/08 10:21:37;;;;;;;31.90;29.77;;;7.50;99.90;;;;;;4963716;28;20073;-77
2022/03/08 10:24:23;;;;;;;30.58;28.50;;;7.20;99.90;;;;;;4992252;28;20133;-77
2022/03/08 10:27:06;;;;;;;30.85;28.40;;;7.10;99.90;;;;;;4972063;28;20096;-77
2022/03/08 10:29:36;;;;;;;34.83;32.72;;;7.20;99.90;;;;;;5003926;28;20135;-77
2022/03/08 10:32:03;;;;;;;36.08;33.42;;;7.00;99.90;;;;;;4955167;28;20047;-76
2022/03/08 10:34:31;;;;;;;33.50;31.40;;;7.00;99.90;;;;;;4986370;28;20042;-77
2022/03/08 10:37:20;;;;;;;35.55;33.20;;;7.40;99.90;;;;;;5005213;28;20282;-78
2022/03/08 10:39:59;;;;;;;34.40;32.05;;;7.50;99.90;;;;;;4998096;28;20069;-76
2022/03/08 10:42:29;;;;;;;34.65;32.60;;;7.40;99.90;;;;;;4983837;28;20050;-76
2022/03/08 10:45:16;;;;;;;35.20;33.15;;;7.50;99.90;;;;;;4991682;28;20463;-76
2022/03/08 10:47:46;;;;;;;33.55;31.60;;;7.70;99.90;;;;;;5000463;28;20072;-77
2022/03/08 10:50:15;;;;;;;35.88;33.50;;;7.50;99.90;;;;;;4998576;28;20546;-76
2022/03/08 10:52:46;;;;;;;33.63;31.65;;;7.10;99.90;;;;;;4983301;28;20046;-76
2022/03/08 10:55:17;;;;;;;33.58;31.77;;;7.40;99.90;;;;;;4982222;28;20073;-79
2022/03/08 10:57:49;;;;;;;37.08;34.80;;;7.70;99.90;;;;;;4985268;28;20356;-77
2022/03/08 11:00:20;;;;;;;35.25;33.28;;;7.70;99.90;;;;;;4980400;28;20053;-77
2022/03/08 11:02:47;;;;;;;34.50;32.65;;;8.10;99.90;;;;;;4960237;28;20050;-77
2022/03/08 11:05:14;;;;;;;34.60;32.67;;;8.00;99.90;;;;;;4984857;28;20046;-77
2022/03/08 11:07:41;;;;;;;35.72;33.78;;;7.80;99.90;;;;;;4970400;28;20058;-76
2022/03/08 11:10:10;;;;;;;34.75;32.83;;;7.70;99.90;;;;;;4966813;28;20446;-77
2022/03/08 11:12:38;;;;;;;34.67;32.67;;;7.90;99.90;;;;;;4982884;28;20085;-77
2022/03/08 11:15:09;;;;;;;34.80;32.97;;;7.60;99.90;;;;;;4985044;28;20058;-77
2022/03/08 11:17:38;;;;;;;34.53;32.53;;;7.60;99.90;;;;;;5004273;28;20485;-77
2022/03/08 11:20:07;;;;;;;36.00;33.92;;;7.80;99.90;;;;;;4985250;28;20112;-77
2022/03/08 11:22:34;;;;;;;36.58;34.47;;;7.70;99.90;;;;;;4986428;28;21096;-77
2022/03/08 11:25:02;;;;;;;34.53;32.40;;;7.90;99.90;;;;;;5004173;28;20418;-77
2022/03/08 11:27:29;;;;;;;34.70;32.55;;;8.10;99.90;;;;;;4986798;28;20046;-77
2022/03/08 11:29:56;;;;;;;35.15;33.13;;;8.20;99.90;;;;;;4982723;28;20047;-76
2022/03/08 11:32:40;;;;;;;35.60;33.30;;;8.10;99.90;;;;;;4970119;28;20043;-76
2022/03/08 11:35:30;;;;;;;35.53;33.63;;;8.30;99.90;;;;;;4984022;28;20599;-75
2022/03/08 11:37:58;;;;;;;34.95;33.05;;;8.00;99.90;;;;;;5001986;28;20480;-76
2022/03/08 11:40:25;;;;;;;36.33;34.38;;;7.90;99.90;;;;;;4989932;28;20042;-76
2022/03/08 11:42:59;;;;;;;35.47;33.50;;;8.10;99.90;;;;;;4968437;28;20184;-76
2022/03/08 11:45:28;;;;;;;34.85;33.05;;;7.90;99.90;;;;;;4994262;28;20107;-76
2022/03/08 11:48:01;;;;;;;36.83;34.50;;;7.80;99.90;;;;;;4954565;28;20046;-77
2022/03/08 11:50:37;;;;;;;33.90;31.98;;;7.70;99.90;;;;;;4965254;28;20055;-77
2022/03/08 11:53:05;;;;;;;35.63;33.30;;;8.00;99.90;;;;;;4982959;28;20230;-76
2022/03/08 11:55:56;;;;;;;35.08;33.15;;;8.20;99.90;;;;;;4965044;28;20254;-77
2022/03/08 11:58:43;;;;;;;35.47;33.47;;;8.30;99.90;;;;;;4982281;28;20585;-77
2022/03/08 12:01:25;;;;;;;33.15;31.45;;;8.10;99.90;;;;;;4969074;28;20067;-76
2022/03/08 12:03:57;;;;;;;35.38;33.42;;;8.10;99.90;;;;;;4982602;28;20054;-76
2022/03/08 12:06:38;;;;;;;34.78;32.97;;;8.30;99.90;;;;;;4981462;28;20047;-76
2022/03/08 12:09:17;;;;;;;34.95;33.00;;;8.50;99.90;;;;;;4983213;28;20777;-76
2022/03/08 12:12:03;;;;;;;34.40;32.45;;;8.40;99.90;;;;;;4982123;28;20038;-76
2022/03/08 12:14:36;;;;;;;36.15;33.83;;;8.20;99.90;;;;;;5002718;28;20104;-76
2022/03/08 12:17:06;;;;;;;34.83;33.03;;;8.30;99.90;;;;;;4970965;28;20038;-76
2022/03/08 12:19:36;;;;;;;35.00;33.10;;;8.40;99.90;;;;;;4982623;28;20054;-76
2022/03/08 12:22:09;;;;;;;34.90;32.85;;;8.20;99.90;;;;;;4980274;28;20105;-76
2022/03/08 12:24:47;;;;;;;34.25;32.33;;;8.40;99.90;;;;;;4982978;28;20085;-76
2022/03/08 12:27:16;;;;;;;34.88;32.63;;;8.40;99.90;;;;;;4980971;28;20054;-77
2022/03/08 12:30:05;;;;;;;34.15;32.05;;;8.30;99.90;;;;;;4979605;28;20058;-76
2022/03/08 12:32:37;;;;;;;34.40;32.33;;;8.50;99.90;;;;;;4955705;28;20058;-76
2022/03/08 12:35:25;;;;;;;35.05;32.90;;;8.60;99.90;;;;;;4981526;28;20054;-76
2022/03/08 12:37:58;;;;;;;34.53;32.58;;;8.70;99.90;;;;;;4961923;28;20101;-76